sensor_id;sensor_type;location;lat;lon;timestamp;pressure;altitude;pressure_sealevel;temperature;humidity
66880;BME280;72009;51.392;10.234;2023-08-06T00:00:13;97294.81;;;14.52;100.00
66880;BME280;72009;51.392;10.234;2023-08-06T00:00:33;97290.41;;;14.51;100.00
66880;BME280;72009;51.392;10.234;2023-08-06T00:00:53;97294.00;;;14.52;100.00
66880;BME280;72009;51.392;10.234;2023-08-06T00:01:13;97295.16;;;14.51;100.00
66880;BME280;72009;51.392;10.234;2023-08-06T00:01:34;97293.19;;;14.51;100.00
66880;BME280;72009;51.392;10.234;2023-08-06T00:01:54;97291.59;;;14.50;100.00
66880;BME280;72009;51.392;10.234;2023-08-06T00:02:14;97290.41;;;14.51;100.00
66880;BME280;72009;51.392;10.234;2023-08-06T00:02:35;97295.94;;;14.51;100.00
66880;BME280;72009;51.392;10.234;2023-08-06T00:02:55;97291.59;;;14.50;100.00
66880;BME280;72009;51.392;10.234;2023-08-06T00:03:15;97289.63;;;14.51;100.00
66880;BME280;72009;51.392;10.234;2023-08-06T00:03:35;97291.59;;;14.50;100.00
66880;BME280;72009;51.392;10.234;2023-08-06T00:03:56;97292.75;;;14.49;100.00
66880;BME280;72009;51.392;10.234;2023-08-06T00:04:16;97296.31;;;14.50;100.00
66880;BME280;72009;51.392;10.234;2023-08-06T00:04:36;97292.38;;;14.51;100.00
66880;BME280;72009;51.392;10.234;2023-08-06T00:04:56;97290.78;;;14.50;100.00
66880;BME280;72009;51.392;10.234;2023-08-06T00:05:17;97290.78;;;14.50;100.00
66880;BME280;72009;51.392;10.234;2023-08-06T00:05:37;97289.97;;;14.49;100.00
66880;BME280;72009;51.392;10.234;2023-08-06T00:06:01;97294.72;;;14.49;100.00
66880;BME280;72009;51.392;10.234;2023-08-06T00:06:21;97287.56;;;14.48;100.00
66880;BME280;72009;51.392;10.234;2023-08-06T00:06:41;97286.78;;;14.47;100.00
66880;BME280;72009;51.392;10.234;2023-08-06T00:07:02;97281.59;;;14.45;100.00
66880;BME280;72009;51.392;10.234;2023-08-06T00:07:22;97280.41;;;14.46;100.00
66880;BME280;72009;51.392;10.234;2023-08-06T00:07:43;97279.63;;;14.46;100.00
66880;BME280;72009;51.392;10.234;2023-08-06T00:08:03;97288.28;;;14.44;100.00
66880;BME280;72009;51.392;10.234;2023-08-06T00:08:23;97285.53;;;14.44;100.00
66880;BME280;72009;51.392;10.234;2023-08-06T00:08:44;97281.13;;;14.43;100.00
66880;BME280;72009;51.392;10.234;2023-08-06T00:09:04;97286.31;;;14.45;100.00
66880;BME280;72009;51.392;10.234;2023-08-06T00:09:24;97281.94;;;14.44;100.00
66880;BME280;72009;51.392;10.234;2023-08-06T00:09:44;97288.63;;;14.43;100.00
66880;BME280;72009;51.392;10.234;2023-08-06T00:10:05;97288.63;;;14.43;100.00
66880;BME280;72009;51.392;10.234;2023-08-06T00:10:25;97285.88;;;14.43;100.00
66880;BME280;72009;51.392;10.234;2023-08-06T00:10:47;97285.88;;;14.43;100.00
66880;BME280;72009;51.392;10.234;2023-08-06T00:11:07;97284.69;;;14.44;100.00
66880;BME280;72009;51.392;10.234;2023-08-06T00:11:28;97279.16;;;14.44;100.00
66880;BME280;72009;51.392;10.234;2023-08-06T00:11:48;97287.47;;;14.44;100.00
66880;BME280;72009;51.392;10.234;2023-08-06T00:12:08;97288.28;;;14.44;100.00
66880;BME280;72009;51.392;10.234;2023-08-06T00:12:29;97277.22;;;14.44;100.00
66880;BME280;72009;51.392;10.234;2023-08-06T00:12:49;97281.94;;;14.44;100.00
66880;BME280;72009;51.392;10.234;2023-08-06T00:13:09;97286.31;;;14.45;100.00
66880;BME280;72009;51.392;10.234;2023-08-06T00:13:30;97278.84;;;14.45;100.00
66880;BME280;72009;51.392;10.234;2023-08-06T00:13:50;97282.75;;;14.44;100.00
66880;BME280;72009;51.392;10.234;2023-08-06T00:14:10;97281.25;;;14.47;100.00
66880;BME280;72009;51.392;10.234;2023-08-06T00:14:30;97280.41;;;14.46;100.00
66880;BME280;72009;51.392;10.234;2023-08-06T00:14:52;97280.41;;;14.46;100.00
66880;BME280;72009;51.392;10.234;2023-08-06T00:15:12;97278.84;;;14.45;100.00
66880;BME280;72009;51.392;10.234;2023-08-06T00:15:33;97275.72;;;14.47;100.00
66880;BME280;72009;51.392;10.234;2023-08-06T00:15:53;97280.41;;;14.46;100.00
66880;BME280;72009;51.392;10.234;2023-08-06T00:16:13;97278.84;;;14.45;100.00
66880;BME280;72009;51.392;10.234;2023-08-06T00:16:34;97277.22;;;14.44;100.00
66880;BME280;72009;51.392;10.234;2023-08-06T00:16:54;97277.22;;;14.44;100.00
66880;BME280;72009;51.392;10.234;2023-08-06T00:17:14;97276.41;;;14.44;100.00
66880;BME280;72009;51.392;10.234;2023-08-06T00:17:35;97275.25;;;14.45;100.00
66880;BME280;72009;51.392;10.234;2023-08-06T00:17:55;97276.75;;;14.42;100.00
66880;BME280;72009;51.392;10.234;2023-08-06T00:18:15;97273.19;;;14.42;100.00
66880;BME280;72009;51.392;10.234;2023-08-06T00:18:35;97276.31;;;14.40;100.00
66880;BME280;72009;51.392;10.234;2023-08-06T00:18:56;97264.47;;;14.40;100.00
66880;BME280;72009;51.392;10.234;2023-08-06T00:19:16;97270.00;;;14.40;100.00
66880;BME280;72009;51.392;10.234;2023-08-06T00:19:36;97273.91;;;14.39;100.00
66880;BME280;72009;51.392;10.234;2023-08-06T00:19:56;97270.00;;;14.40;100.00
66880;BME280;72009;51.392;10.234;2023-08-06T00:20:17;97275.53;;;14.40;100.00
66880;BME280;72009;51.392;10.234;2023-08-06T00:20:40;97277.47;;;14.39;100.00
66880;BME280;72009;51.392;10.234;2023-08-06T00:21:01;97265.25;;;14.40;100.00
66880;BME280;72009;51.392;10.234;2023-08-06T00:21:21;97271.56;;;14.41;100.00
66880;BME280;72009;51.392;10.234;2023-08-06T00:21:41;97271.56;;;14.41;100.00
66880;BME280;72009;51.392;10.234;2023-08-06T00:22:01;97267.22;;;14.40;100.00
66880;BME280;72009;51.392;10.234;2023-08-06T00:22:22;97272.41;;;14.41;100.00
66880;BME280;72009;51.392;10.234;2023-08-06T00:22:42;97271.56;;;14.41;100.00
66880;BME280;72009;51.392;10.234;2023-08-06T00:23:02;97272.41;;;14.41;100.00
66880;BME280;72009;51.392;10.234;2023-08-06T00:23:22;97262.91;;;14.42;100.00
66880;BME280;72009;51.392;10.234;2023-08-06T00:23:43;97266.88;;;14.41;100.00
66880;BME280;72009;51.392;10.234;2023-08-06T00:24:03;97270.44;;;14.42;100.00
66880;BME280;72009;51.392;10.234;2023-08-06T00:24:23;97265.69;;;14.42;100.00
66880;BME280;72009;51.392;10.234;2023-08-06T00:24:44;97265.69;;;14.42;100.00
66880;BME280;72009;51.392;10.234;2023-08-06T00:25:05;97269.28;;;14.43;100.00
66880;BME280;72009;51.392;10.234;2023-08-06T00:25:25;97266.03;;;14.41;100.00
66880;BME280;72009;51.392;10.234;2023-08-06T00:25:46;97262.13;;;14.42;100.00
66880;BME280;72009;51.392;10.234;2023-08-06T00:26:06;97272.41;;;14.41;100.00
66880;BME280;72009;51.392;10.234;2023-08-06T00:26:26;97260.50;;;14.41;100.00
66880;BME280;72009;51.392;10.234;2023-08-06T00:26:46;97268.00;;;14.40;100.00
66880;BME280;72009;51.392;10.234;2023-08-06T00:27:07;97261.34;;;14.41;100.00
66880;BME280;72009;51.392;10.234;2023-08-06T00:27:27;97256.94;;;14.40;100.00
66880;BME280;72009;51.392;10.234;2023-08-06T00:27:47;97263.63;;;14.39;100.00
66880;BME280;72009;51.392;10.234;2023-08-06T00:28:08;97254.91;;;14.37;100.00
66880;BME280;72009;51.392;10.234;2023-08-06T00:28:28;97262.84;;;14.39;100.00
66880;BME280;72009;51.392;10.234;2023-08-06T00:28:48;97259.63;;;14.37;100.00
66880;BME280;72009;51.392;10.234;2023-08-06T00:29:08;97262.84;;;14.39;100.00
66880;BME280;72009;51.392;10.234;2023-08-06T00:29:29;97259.28;;;14.38;100.00
66880;BME280;72009;51.392;10.234;2023-08-06T00:29:49;97253.28;;;14.36;100.00
66880;BME280;72009;51.392;10.234;2023-08-06T00:30:10;97260.78;;;14.36;100.00
66880;BME280;72009;51.392;10.234;2023-08-06T00:30:31;97253.28;;;14.36;100.00
66880;BME280;72009;51.392;10.234;2023-08-06T00:30:55;97254.47;;;14.35;100.00
66880;BME280;72009;51.392;10.234;2023-08-06T00:31:16;97247.31;;;14.34;100.00
66880;BME280;72009;51.392;10.234;2023-08-06T00:31:36;97255.25;;;14.36;100.00
66880;BME280;72009;51.392;10.234;2023-08-06T00:31:56;97250.09;;;14.34;100.00
66880;BME280;72009;51.392;10.234;2023-08-06T00:32:17;97248.47;;;14.33;100.00
66880;BME280;72009;51.392;10.234;2023-08-06T00:32:37;97249.28;;;14.34;100.00
66880;BME280;72009;51.392;10.234;2023-08-06T00:32:57;97257.22;;;14.35;100.00
66880;BME280;72009;51.392;10.234;2023-08-06T00:33:18;97250.88;;;14.35;100.00
66880;BME280;72009;51.392;10.234;2023-08-06T00:33:38;97247.66;;;14.33;100.00
66880;BME280;72009;51.392;10.234;2023-08-06T00:33:58;97244.91;;;14.33;100.00
66880;BME280;72009;51.392;10.234;2023-08-06T00:34:18;97249.63;;;14.32;100.00
66880;BME280;72009;51.392;10.234;2023-08-06T00:34:39;97247.31;;;14.34;100.00
66880;BME280;72009;51.392;10.234;2023-08-06T00:34:59;97239.38;;;14.33;100.00
66880;BME280;72009;51.392;10.234;2023-08-06T00:35:19;97241.78;;;14.34;100.00
66880;BME280;72009;51.392;10.234;2023-08-06T00:35:39;97239.00;;;14.34;100.00
66880;BME280;72009;51.392;10.234;2023-08-06T00:36:00;97242.56;;;14.35;100.00
66880;BME280;72009;51.392;10.234;2023-08-06T00:36:20;97243.84;;;14.37;100.00
66880;BME280;72009;51.392;10.234;2023-08-06T00:36:40;97239.81;;;14.35;100.00
66880;BME280;72009;51.392;10.234;2023-08-06T00:37:01;97238.66;;;14.36;100.00
66880;BME280;72009;51.392;10.234;2023-08-06T00:37:21;97239.44;;;14.36;100.00
66880;BME280;72009;51.392;10.234;2023-08-06T00:37:41;97233.56;;;14.38;100.00
66880;BME280;72009;51.392;10.234;2023-08-06T00:38:02;97228.84;;;14.38;100.00
66880;BME280;72009;51.392;10.234;2023-08-06T00:38:22;97232.41;;;14.39;100.00
66880;BME280;72009;51.392;10.234;2023-08-06T00:38:42;97229.66;;;14.39;100.00
66880;BME280;72009;51.392;10.234;2023-08-06T00:39:03;97234.38;;;14.38;100.00
66880;BME280;72009;51.392;10.234;2023-08-06T00:39:23;97224.91;;;14.39;100.00
66880;BME280;72009;51.392;10.234;2023-08-06T00:39:44;97234.03;;;14.40;100.00
66880;BME280;72009;51.392;10.234;2023-08-06T00:40:06;97234.81;;;14.40;100.00
66880;BME280;72009;51.392;10.234;2023-08-06T00:40:26;97228.50;;;14.40;100.00
66880;BME280;72009;51.392;10.234;2023-08-06T00:40:46;97226.53;;;14.40;100.00
66880;BME280;72009;51.392;10.234;2023-08-06T00:41:06;97230.09;;;14.41;100.00
66880;BME280;72009;51.392;10.234;2023-08-06T00:41:27;97233.66;;;14.41;100.00
66880;BME280;72009;51.392;10.234;2023-08-06T00:41:47;97229.72;;;14.42;100.00
66880;BME280;72009;51.392;10.234;2023-08-06T00:42:07;97223.03;;;14.43;100.00
66880;BME280;72009;51.392;10.234;2023-08-06T00:42:28;97234.56;;;14.45;100.00
66880;BME280;72009;51.392;10.234;2023-08-06T00:42:48;97235.38;;;14.46;100.00
66880;BME280;72009;51.392;10.234;2023-08-06T00:43:08;97228.69;;;14.47;100.00
66880;BME280;72009;51.392;10.234;2023-08-06T00:43:29;97229.47;;;14.48;100.00
66880;BME280;72009;51.392;10.234;2023-08-06T00:43:50;97229.91;;;14.50;100.00
66880;BME280;72009;51.392;10.234;2023-08-06T00:44:10;97235.44;;;14.50;100.00
66880;BME280;72009;51.392;10.234;2023-08-06T00:44:30;97236.25;;;14.50;100.00
66880;BME280;72009;51.392;10.234;2023-08-06T00:44:50;97240.63;;;14.51;100.00
66880;BME280;72009;51.392;10.234;2023-08-06T00:45:11;97239.81;;;14.51;100.00
66880;BME280;72009;51.392;10.234;2023-08-06T00:45:35;97232.31;;;14.51;100.00
66880;BME280;72009;51.392;10.234;2023-08-06T00:45:55;97229.56;;;14.51;100.00
66880;BME280;72009;51.392;10.234;2023-08-06T00:46:16;97235.91;;;14.52;100.00
66880;BME280;72009;51.392;10.234;2023-08-06T00:46:36;97237.50;;;14.53;100.00
66880;BME280;72009;51.392;10.234;2023-08-06T00:46:57;97232.78;;;14.53;100.00
66880;BME280;72009;51.392;10.234;2023-08-06T00:47:17;97234.72;;;14.53;100.00
66880;BME280;72009;51.392;10.234;2023-08-06T00:47:38;97235.56;;;14.53;100.00
66880;BME280;72009;51.392;10.234;2023-08-06T00:47:59;97233.94;;;14.52;100.00
66880;BME280;72009;51.392;10.234;2023-08-06T00:48:20;97235.91;;;14.52;100.00
66880;BME280;72009;51.392;10.234;2023-08-06T00:48:41;97234.72;;;14.53;100.00
66880;BME280;72009;51.392;10.234;2023-08-06T00:49:02;97232.31;;;14.51;100.00
66880;BME280;72009;51.392;10.234;2023-08-06T00:49:23;97232.31;;;14.51;100.00
66880;BME280;72009;51.392;10.234;2023-08-06T00:49:43;97234.72;;;14.53;100.00
66880;BME280;72009;51.392;10.234;2023-08-06T00:50:04;97232.78;;;14.53;100.00
66880;BME280;72009;51.392;10.234;2023-08-06T00:50:26;97233.94;;;14.52;100.00
66880;BME280;72009;51.392;10.234;2023-08-06T00:50:46;97236.69;;;14.52;100.00
66880;BME280;72009;51.392;10.234;2023-08-06T00:51:10;97233.94;;;14.52;100.00
66880;BME280;72009;51.392;10.234;2023-08-06T00:51:30;97238.69;;;14.52;100.00
66880;BME280;72009;51.392;10.234;2023-08-06T00:51:52;97228.41;;;14.52;100.00
66880;BME280;72009;51.392;10.234;2023-08-06T00:52:13;97229.19;;;14.53;100.00
66880;BME280;72009;51.392;10.234;2023-08-06T00:52:34;97229.19;;;14.53;100.00
66880;BME280;72009;51.392;10.234;2023-08-06T00:52:55;97235.56;;;14.53;100.00
66880;BME280;72009;51.392;10.234;2023-08-06T00:53:16;97226.44;;;14.53;100.00
66880;BME280;72009;51.392;10.234;2023-08-06T00:53:38;97231.97;;;14.53;100.00
66880;BME280;72009;51.392;10.234;2023-08-06T00:53:58;97229.19;;;14.53;100.00
66880;BME280;72009;51.392;10.234;2023-08-06T00:54:19;97225.63;;;14.52;100.00
66880;BME280;72009;51.392;10.234;2023-08-06T00:54:39;97228.41;;;14.52;100.00
66880;BME280;72009;51.392;10.234;2023-08-06T00:55:00;97227.59;;;14.52;100.00
66880;BME280;72009;51.392;10.234;2023-08-06T00:55:21;97231.53;;;14.51;100.00
66880;BME280;72009;51.392;10.234;2023-08-06T00:55:44;97221.25;;;14.51;100.00
66880;BME280;72009;51.392;10.234;2023-08-06T00:56:06;97226.78;;;14.51;100.00
66880;BME280;72009;51.392;10.234;2023-08-06T00:56:27;97228.41;;;14.52;100.00
66880;BME280;72009;51.392;10.234;2023-08-06T00:56:48;97227.59;;;14.52;100.00
66880;BME280;72009;51.392;10.234;2023-08-06T00:57:09;97226.78;;;14.51;100.00
66880;BME280;72009;51.392;10.234;2023-08-06T00:57:30;97221.25;;;14.51;100.00
66880;BME280;72009;51.392;10.234;2023-08-06T00:57:50;97224.03;;;14.51;100.00
66880;BME280;72009;51.392;10.234;2023-08-06T00:58:12;97221.25;;;14.51;100.00
66880;BME280;72009;51.392;10.234;2023-08-06T00:58:35;97225.63;;;14.52;100.00
66880;BME280;72009;51.392;10.234;2023-08-06T00:58:56;97225.28;;;14.54;100.00
66880;BME280;72009;51.392;10.234;2023-08-06T00:59:17;97220.09;;;14.52;100.00
66880;BME280;72009;51.392;10.234;2023-08-06T00:59:37;97221.72;;;14.53;100.00
66880;BME280;72009;51.392;10.234;2023-08-06T00:59:58;97215.81;;;14.55;100.00
66880;BME280;72009;51.392;10.234;2023-08-06T01:00:20;97224.91;;;14.55;100.00
66880;BME280;72009;51.392;10.234;2023-08-06T01:00:41;97218.22;;;14.56;100.00
66880;BME280;72009;51.392;10.234;2023-08-06T01:01:02;97224.56;;;14.57;100.00
66880;BME280;72009;51.392;10.234;2023-08-06T01:01:22;97219.84;;;14.57;100.00
66880;BME280;72009;51.392;10.234;2023-08-06T01:01:43;97220.63;;;14.58;100.00
66880;BME280;72009;51.392;10.234;2023-08-06T01:02:05;97221.44;;;14.58;100.00
66880;BME280;72009;51.392;10.234;2023-08-06T01:02:26;97221.44;;;14.58;100.00
66880;BME280;72009;51.392;10.234;2023-08-06T01:02:48;97223.03;;;14.59;100.00
66880;BME280;72009;51.392;10.234;2023-08-06T01:03:08;97220.28;;;14.59;100.00
66880;BME280;72009;51.392;10.234;2023-08-06T01:03:29;97211.97;;;14.59;100.00
66880;BME280;72009;51.392;10.234;2023-08-06T01:03:49;97213.94;;;14.59;100.00
66880;BME280;72009;51.392;10.234;2023-08-06T01:04:11;97213.94;;;14.59;100.00
66880;BME280;72009;51.392;10.234;2023-08-06T01:04:32;97210.38;;;14.58;100.00
66880;BME280;72009;51.392;10.234;2023-08-06T01:04:52;97209.22;;;14.59;100.00
66880;BME280;72009;51.392;10.234;2023-08-06T01:05:12;97212.78;;;14.60;100.00
66880;BME280;72009;51.392;10.234;2023-08-06T01:05:33;97214.38;;;14.61;100.00
66880;BME280;72009;51.392;10.234;2023-08-06T01:05:55;97210.81;;;14.60;100.00
66880;BME280;72009;51.392;10.234;2023-08-06T01:06:22;97216.00;;;14.62;100.00
66880;BME280;72009;51.392;10.234;2023-08-06T01:07:44;97208.84;;;14.61;100.00
66880;BME280;72009;51.392;10.234;2023-08-06T01:09:17;97195.00;;;14.61;100.00
66880;BME280;72009;51.392;10.234;2023-08-06T01:09:45;97197.78;;;14.61;100.00
66880;BME280;72009;51.392;10.234;2023-08-06T01:11:00;97197.78;;;14.61;100.00
66880;BME280;72009;51.392;10.234;2023-08-06T01:13:42;97194.59;;;14.59;100.00
66880;BME280;72009;51.392;10.234;2023-08-06T01:14:18;97194.59;;;14.59;100.00
66880;BME280;72009;51.392;10.234;2023-08-06T01:14:57;97189.06;;;14.59;100.00
66880;BME280;72009;51.392;10.234;2023-08-06T01:15:25;97189.41;;;14.57;100.00
66880;BME280;72009;51.392;10.234;2023-08-06T01:15:53;97186.66;;;14.57;100.00
66880;BME280;72009;51.392;10.234;2023-08-06T01:16:17;97187.44;;;14.58;100.00
66880;BME280;72009;51.392;10.234;2023-08-06T01:16:37;97188.22;;;14.58;100.00
66880;BME280;72009;51.392;10.234;2023-08-06T01:16:58;97191.00;;;14.58;100.00
66880;BME280;72009;51.392;10.234;2023-08-06T01:17:20;97192.59;;;14.59;100.00
66880;BME280;72009;51.392;10.234;2023-08-06T01:17:40;97180.75;;;14.59;100.00
66880;BME280;72009;51.392;10.234;2023-08-06T01:18:01;97182.69;;;14.58;100.00
66880;BME280;72009;51.392;10.234;2023-08-06T01:18:22;97191.47;;;14.60;100.00
66880;BME280;72009;51.392;10.234;2023-08-06T01:18:42;97185.09;;;14.60;100.00
66880;BME280;72009;51.392;10.234;2023-08-06T01:19:02;97186.28;;;14.59;100.00
66880;BME280;72009;51.392;10.234;2023-08-06T01:19:23;97184.31;;;14.59;100.00
66880;BME280;72009;51.392;10.234;2023-08-06T01:19:43;97185.09;;;14.60;100.00
66880;BME280;72009;51.392;10.234;2023-08-06T01:20:04;97189.84;;;14.59;100.00
66880;BME280;72009;51.392;10.234;2023-08-06T01:20:29;97189.84;;;14.59;100.00
66880;BME280;72009;51.392;10.234;2023-08-06T01:20:49;97195.00;;;14.61;100.00
66880;BME280;72009;51.392;10.234;2023-08-06T01:21:09;97188.69;;;14.60;100.00
66880;BME280;72009;51.392;10.234;2023-08-06T01:21:29;97187.88;;;14.60;100.00
66880;BME280;72009;51.392;10.234;2023-08-06T01:21:50;97180.38;;;14.60;100.00
66880;BME280;72009;51.392;10.234;2023-08-06T01:22:10;97191.47;;;14.60;100.00
66880;BME280;72009;51.392;10.234;2023-08-06T01:22:30;97185.94;;;14.60;100.00
66880;BME280;72009;51.392;10.234;2023-08-06T01:22:51;97183.16;;;14.60;100.00
66880;BME280;72009;51.392;10.234;2023-08-06T01:23:11;97183.94;;;14.61;100.00
66880;BME280;72009;51.392;10.234;2023-08-06T01:23:31;97181.19;;;14.61;100.00
66880;BME280;72009;51.392;10.234;2023-08-06T01:23:52;97185.56;;;14.62;100.00
66880;BME280;72009;51.392;10.234;2023-08-06T01:24:13;97185.19;;;14.63;100.00
66880;BME280;72009;51.392;10.234;2023-08-06T01:24:33;97182.44;;;14.63;100.00
66880;BME280;72009;51.392;10.234;2023-08-06T01:24:54;97192.31;;;14.64;100.00
66880;BME280;72009;51.392;10.234;2023-08-06T01:25:16;97188.41;;;14.66;100.00
66880;BME280;72009;51.392;10.234;2023-08-06T01:26:26;97174.94;;;14.64;100.00
66880;BME280;72009;51.392;10.234;2023-08-06T01:27:06;97187.59;;;14.65;100.00
66880;BME280;72009;51.392;10.234;2023-08-06T01:27:48;97187.59;;;14.65;100.00
66880;BME280;72009;51.392;10.234;2023-08-06T01:28:18;97181.63;;;14.63;100.00
66880;BME280;72009;51.392;10.234;2023-08-06T01:29:06;97184.38;;;14.63;100.00
66880;BME280;72009;51.392;10.234;2023-08-06T01:29:28;97184.38;;;14.63;100.00
66880;BME280;72009;51.392;10.234;2023-08-06T01:30:22;97188.34;;;14.62;100.00
66880;BME280;72009;51.392;10.234;2023-08-06T01:30:48;97190.75;;;14.63;100.00
66880;BME280;72009;51.392;10.234;2023-08-06T01:31:18;97189.13;;;14.62;100.00
66880;BME280;72009;51.392;10.234;2023-08-06T01:31:43;97191.88;;;14.62;100.00
66880;BME280;72009;51.392;10.234;2023-08-06T01:32:05;97191.47;;;14.60;100.00
66880;BME280;72009;51.392;10.234;2023-08-06T01:32:32;97184.75;;;14.61;100.00
66880;BME280;72009;51.392;10.234;2023-08-06T01:32:58;97183.16;;;14.60;100.00
66880;BME280;72009;51.392;10.234;2023-08-06T01:33:22;97189.47;;;14.61;100.00
66880;BME280;72009;51.392;10.234;2023-08-06T01:33:45;97184.31;;;14.59;100.00
66880;BME280;72009;51.392;10.234;2023-08-06T01:34:11;97190.63;;;14.60;100.00
66880;BME280;72009;51.392;10.234;2023-08-06T01:34:34;97187.06;;;14.59;100.00
66880;BME280;72009;51.392;10.234;2023-08-06T01:34:57;97188.69;;;14.60;100.00
66880;BME280;72009;51.392;10.234;2023-08-06T01:35:21;97188.22;;;14.58;100.00
66880;BME280;72009;51.392;10.234;2023-08-06T01:35:43;97186.28;;;14.59;100.00
66880;BME280;72009;51.392;10.234;2023-08-06T01:36:06;97192.59;;;14.59;100.00
66880;BME280;72009;51.392;10.234;2023-08-06T01:36:28;97195.38;;;14.59;100.00
66880;BME280;72009;51.392;10.234;2023-08-06T01:36:49;97189.06;;;14.59;100.00
66880;BME280;72009;51.392;10.234;2023-08-06T01:37:11;97189.06;;;14.59;100.00
66880;BME280;72009;51.392;10.234;2023-08-06T01:37:32;97187.06;;;14.59;100.00
66880;BME280;72009;51.392;10.234;2023-08-06T01:37:53;97188.22;;;14.58;100.00
66880;BME280;72009;51.392;10.234;2023-08-06T01:38:13;97180.28;;;14.57;100.00
66880;BME280;72009;51.392;10.234;2023-08-06T01:38:34;97191.00;;;14.58;100.00
66880;BME280;72009;51.392;10.234;2023-08-06T01:38:54;97188.22;;;14.58;100.00
66880;BME280;72009;51.392;10.234;2023-08-06T01:39:14;97181.91;;;14.58;100.00
66880;BME280;72009;51.392;10.234;2023-08-06T01:39:35;97186.28;;;14.59;100.00
66880;BME280;72009;51.392;10.234;2023-08-06T01:39:56;97179.13;;;14.58;100.00
66880;BME280;72009;51.392;10.234;2023-08-06T01:40:16;97186.66;;;14.57;100.00
66880;BME280;72009;51.392;10.234;2023-08-06T01:40:36;97186.66;;;14.57;100.00
66880;BME280;72009;51.392;10.234;2023-08-06T01:40:56;97178.66;;;14.56;100.00
66880;BME280;72009;51.392;10.234;2023-08-06T01:41:17;97185.81;;;14.57;100.00
66880;BME280;72009;51.392;10.234;2023-08-06T01:41:37;97187.44;;;14.58;100.00
66880;BME280;72009;51.392;10.234;2023-08-06T01:41:57;97183.88;;;14.57;100.00
66880;BME280;72009;51.392;10.234;2023-08-06T01:42:18;97180.28;;;14.57;100.00
66880;BME280;72009;51.392;10.234;2023-08-06T01:42:38;97183.06;;;14.57;100.00
66880;BME280;72009;51.392;10.234;2023-08-06T01:42:59;97186.66;;;14.57;100.00
66880;BME280;72009;51.392;10.234;2023-08-06T01:43:19;97188.22;;;14.58;100.00
66880;BME280;72009;51.392;10.234;2023-08-06T01:43:39;97183.88;;;14.57;100.00
66880;BME280;72009;51.392;10.234;2023-08-06T01:43:59;97183.88;;;14.57;100.00
66880;BME280;72009;51.392;10.234;2023-08-06T01:44:20;97181.09;;;14.57;100.00
66880;BME280;72009;51.392;10.234;2023-08-06T01:44:40;97182.25;;;14.56;100.00
66880;BME280;72009;51.392;10.234;2023-08-06T01:45:01;97186.97;;;14.56;100.00
66880;BME280;72009;51.392;10.234;2023-08-06T01:45:21;97187.78;;;14.56;100.00
66880;BME280;72009;51.392;10.234;2023-08-06T01:45:42;97181.44;;;14.56;100.00
66880;BME280;72009;51.392;10.234;2023-08-06T01:46:02;97175.13;;;14.55;100.00
66880;BME280;72009;51.392;10.234;2023-08-06T01:46:22;97177.09;;;14.55;100.00
66880;BME280;72009;51.392;10.234;2023-08-06T01:46:43;97181.00;;;14.54;100.00
66880;BME280;72009;51.392;10.234;2023-08-06T01:47:03;97181.00;;;14.54;100.00
66880;BME280;72009;51.392;10.234;2023-08-06T01:47:23;97177.44;;;14.53;100.00
66880;BME280;72009;51.392;10.234;2023-08-06T01:47:44;97177.44;;;14.53;100.00
66880;BME280;72009;51.392;10.234;2023-08-06T01:48:04;97168.31;;;14.53;100.00
66880;BME280;72009;51.392;10.234;2023-08-06T01:48:24;97174.69;;;14.53;100.00
66880;BME280;72009;51.392;10.234;2023-08-06T01:48:44;97178.25;;;14.54;100.00
66880;BME280;72009;51.392;10.234;2023-08-06T01:49:05;97177.44;;;14.53;100.00
66880;BME280;72009;51.392;10.234;2023-08-06T01:49:25;97174.69;;;14.53;100.00
66880;BME280;72009;51.392;10.234;2023-08-06T01:49:45;97172.72;;;14.54;100.00
66880;BME280;72009;51.392;10.234;2023-08-06T01:50:06;97176.63;;;14.53;100.00
66880;BME280;72009;51.392;10.234;2023-08-06T01:50:26;97178.25;;;14.54;100.00
66880;BME280;72009;51.392;10.234;2023-08-06T01:50:46;97176.63;;;14.53;100.00
66880;BME280;72009;51.392;10.234;2023-08-06T01:51:07;97176.63;;;14.53;100.00
66880;BME280;72009;51.392;10.234;2023-08-06T01:51:27;97179.41;;;14.53;100.00
66880;BME280;72009;51.392;10.234;2023-08-06T01:51:47;97183.34;;;14.52;100.00
66880;BME280;72009;51.392;10.234;2023-08-06T01:52:08;97175.41;;;14.50;100.00
66880;BME280;72009;51.392;10.234;2023-08-06T01:52:28;97176.97;;;14.51;100.00
66880;BME280;72009;51.392;10.234;2023-08-06T01:52:48;97171.44;;;14.51;100.00
66880;BME280;72009;51.392;10.234;2023-08-06T01:53:09;97171.03;;;14.49;100.00
66880;BME280;72009;51.392;10.234;2023-08-06T01:53:29;97180.94;;;14.50;100.00
66880;BME280;72009;51.392;10.234;2023-08-06T01:53:49;97168.25;;;14.49;100.00
66880;BME280;72009;51.392;10.234;2023-08-06T01:54:09;97174.94;;;14.48;100.00
66880;BME280;72009;51.392;10.234;2023-08-06T01:54:30;97177.69;;;14.48;100.00
66880;BME280;72009;51.392;10.234;2023-08-06T01:54:50;97177.69;;;14.48;100.00
66880;BME280;72009;51.392;10.234;2023-08-06T01:55:10;97176.13;;;14.47;100.00
66880;BME280;72009;51.392;10.234;2023-08-06T01:55:31;97181.19;;;14.45;100.00
66880;BME280;72009;51.392;10.234;2023-08-06T01:55:51;97181.19;;;14.45;100.00
66880;BME280;72009;51.392;10.234;2023-08-06T01:56:11;97176.81;;;14.44;100.00
66880;BME280;72009;51.392;10.234;2023-08-06T01:56:31;97177.63;;;14.44;100.00